Time;durP1;ratioP1;P1;durP2;ratioP2;P2;SDS_P1;SDS_P2;PMS_P1;PMS_P2;Temp;Humidity;BMP_temperature;BMP_pressure;BME280_temperature;BME280_humidity;BME280_pressure;Samples;Min_cycle;Max_cycle;Signal;HPM_P1;HPM_P2
2021/09/13 00:00:23;;;;;;;;;;;25.00;53.40;;;;;;1531249;76;807;-73
2021/09/13 00:02:28;;;;;;;;;;;25.00;53.30;;;;;;1539030;76;693;-73
2021/09/13 00:04:28;;;;;;;;;;;24.90;53.40;;;;;;1535132;76;1939;-73
2021/09/13 00:06:30;;;;;;;;;;;25.00;53.40;;;;;;1547727;76;655;-73
2021/09/13 00:08:32;;;;;;;;;;;25.00;53.40;;;;;;1535087;76;747;-72
2021/09/13 00:10:34;;;;;;;;;;;25.00;53.30;;;;;;1539930;76;829;-72
2021/09/13 00:12:36;;;;;;;;;;;25.00;53.30;;;;;;1543808;76;791;-72
2021/09/13 00:14:37;;;;;;;;;;;25.10;53.30;;;;;;1540447;76;1094;-72
2021/09/13 00:16:39;;;;;;;;;;;25.00;53.20;;;;;;1531771;76;762;-72
2021/09/13 00:18:41;;;;;;;;;;;25.00;53.20;;;;;;1536237;76;683;-73
2021/09/13 00:20:43;;;;;;;;;;;25.00;53.10;;;;;;1533277;76;796;-72
2021/09/13 00:22:45;;;;;;;;;;;25.00;53.10;;;;;;1529723;76;755;-72
2021/09/13 00:24:47;;;;;;;;;;;25.00;53.00;;;;;;1527296;76;1948;-72
2021/09/13 00:26:49;;;;;;;;;;;25.00;53.10;;;;;;1566530;72;223080;-58
2021/09/13 00:28:50;;;;;;;;;;;25.00;53.00;;;;;;1568083;74;707;-58
2021/09/13 00:30:52;;;;;;;;;;;25.00;52.90;;;;;;1598613;73;701;-58
2021/09/13 00:32:54;;;;;;;;;;;25.10;52.90;;;;;;1571416;74;712;-58
2021/09/13 00:34:56;;;;;;;;;;;25.00;52.90;;;;;;1542790;75;1074;-58
2021/09/13 00:36:58;;;;;;;;;;;25.10;52.90;;;;;;1563762;74;928;-57
2021/09/13 00:39:00;;;;;;;;;;;25.00;52.80;;;;;;1576410;74;668;-57
2021/09/13 00:41:02;;;;;;;;;;;25.00;52.80;;;;;;1597999;73;654;-57
2021/09/13 00:43:04;;;;;;;;;;;25.00;52.80;;;;;;1598272;73;1133;-57
2021/09/13 00:45:06;;;;;;;;;;;25.00;52.90;;;;;;1600445;73;1929;-58
2021/09/13 00:47:08;;;;;;;;;;;25.00;52.90;;;;;;1601489;73;787;-57
2021/09/13 00:49:10;;;;;;;;;;;25.00;53.00;;;;;;1616879;73;849;-57
2021/09/13 00:51:11;;;;;;;;;;;25.00;53.00;;;;;;1619884;73;619;-57
2021/09/13 00:53:13;;;;;;;;;;;25.00;53.00;;;;;;1596096;73;1129;-56
2021/09/13 00:55:15;;;;;;;;;;;25.00;53.00;;;;;;1601860;73;669;-57
2021/09/13 00:57:17;;;;;;;;;;;25.00;53.00;;;;;;1607314;73;655;-55
2021/09/13 00:59:19;;;;;;;;;;;24.90;53.00;;;;;;1600109;72;746;-55
2021/09/13 01:01:21;;;;;;;;;;;25.00;53.00;;;;;;1588893;73;719;-56
2021/09/13 01:03:23;;;;;;;;;;;25.00;53.10;;;;;;1597765;73;1127;-56
2021/09/13 01:05:25;;;;;;;;;;;25.00;53.10;;;;;;1596202;72;1946;-56
2021/09/13 01:07:30;;;;;;;;;;;24.90;53.10;;;;;;1596518;72;801;-56
2021/09/13 01:09:30;;;;;;;;;;;25.00;53.10;;;;;;1586641;73;1625;-55
2021/09/13 01:11:32;;;;;;;;;;;25.00;53.10;;;;;;1596918;73;741;-56
2021/09/13 01:13:34;;;;;;;;;;;24.90;53.10;;;;;;1597479;73;1128;-57
2021/09/13 01:15:39;;;;;;;;;;;24.90;53.10;;;;;;1589530;71;228888;-69
2021/09/13 01:17:41;;;;;;;;;;;25.00;53.00;;;;;;1576281;73;773;-67
2021/09/13 01:19:43;;;;;;;;;;;25.00;53.10;;;;;;1598234;73;936;-67
2021/09/13 01:21:45;;;;;;;;;;;25.00;53.00;;;;;;1600068;73;751;-64
2021/09/13 01:23:47;;;;;;;;;;;24.90;53.00;;;;;;1584457;73;1206;-65
2021/09/13 01:25:49;;;;;;;;;;;25.00;53.10;;;;;;1577987;73;1958;-68
2021/09/13 01:27:50;;;;;;;;;;;25.00;53.10;;;;;;1575393;73;793;-68
2021/09/13 01:29:52;;;;;;;;;;;25.00;52.90;;;;;;1578573;73;831;-67
2021/09/13 01:31:54;;;;;;;;;;;25.00;52.90;;;;;;1583211;73;773;-67
2021/09/13 01:33:56;;;;;;;;;;;25.10;52.90;;;;;;1578947;73;1165;-67
2021/09/13 01:35:58;;;;;;;;;;;25.00;52.80;;;;;;1578567;73;743;-67
2021/09/13 01:38:00;;;;;;;;;;;25.00;52.80;;;;;;1579136;73;801;-67
2021/09/13 01:40:02;;;;;;;;;;;25.00;52.80;;;;;;1579379;73;785;-68
2021/09/13 01:42:04;;;;;;;;;;;25.00;52.80;;;;;;1578831;73;785;-69
2021/09/13 01:44:05;;;;;;;;;;;24.90;52.80;;;;;;1580030;73;1136;-67
2021/09/13 01:46:07;;;;;;;;;;;24.90;52.80;;;;;;1579527;73;1930;-68
2021/09/13 01:48:09;;;;;;;;;;;25.00;52.80;;;;;;1575881;74;833;-66
2021/09/13 01:50:11;;;;;;;;;;;25.00;52.80;;;;;;1578576;73;688;-66
2021/09/13 01:52:14;;;;;;;;;;;25.00;52.80;;;;;;1586252;73;716;-67
2021/09/13 01:54:16;;;;;;;;;;;24.90;52.80;;;;;;1581329;73;1099;-65
2021/09/13 01:56:18;;;;;;;;;;;25.00;52.80;;;;;;1578307;74;802;-68
2021/09/13 01:58:19;;;;;;;;;;;24.90;52.80;;;;;;1581553;73;775;-68
2021/09/13 02:00:21;;;;;;;;;;;25.00;52.80;;;;;;1578326;73;766;-65
2021/09/13 02:02:23;;;;;;;;;;;25.00;52.80;;;;;;1577835;73;778;-68
2021/09/13 02:04:25;;;;;;;;;;;25.00;52.80;;;;;;1578729;73;1159;-69
2021/09/13 02:06:27;;;;;;;;;;;25.00;52.70;;;;;;1572312;73;1942;-68
2021/09/13 02:08:29;;;;;;;;;;;25.00;52.70;;;;;;1592194;73;752;-67
2021/09/13 02:10:31;;;;;;;;;;;25.00;52.70;;;;;;1587644;73;780;-68
2021/09/13 02:12:33;;;;;;;;;;;24.90;52.60;;;;;;1581854;73;814;-68
2021/09/13 02:14:34;;;;;;;;;;;24.90;52.60;;;;;;1587524;73;1205;-67
2021/09/13 02:16:36;;;;;;;;;;;25.00;52.60;;;;;;1588628;73;710;-67
2021/09/13 02:18:38;;;;;;;;;;;24.90;52.60;;;;;;1584811;73;728;-69
2021/09/13 02:20:40;;;;;;;;;;;24.90;52.60;;;;;;1574305;73;690;-68
2021/09/13 02:22:42;;;;;;;;;;;24.90;52.60;;;;;;1583957;73;734;-67
2021/09/13 02:24:44;;;;;;;;;;;24.90;52.60;;;;;;1584906;73;1173;-67
2021/09/13 02:26:46;;;;;;;;;;;24.90;52.60;;;;;;1581017;73;1949;-66
2021/09/13 02:28:47;;;;;;;;;;;24.90;52.50;;;;;;1579207;74;785;-66
2021/09/13 02:30:49;;;;;;;;;;;24.90;52.50;;;;;;1578392;73;790;-67
2021/09/13 02:32:51;;;;;;;;;;;24.90;52.50;;;;;;1578577;73;766;-66
2021/09/13 02:34:53;;;;;;;;;;;24.90;52.50;;;;;;1580569;73;1149;-66
2021/09/13 02:36:55;;;;;;;;;;;24.90;52.50;;;;;;1583010;73;750;-68
2021/09/13 02:38:57;;;;;;;;;;;24.90;52.50;;;;;;1576877;74;719;-66
2021/09/13 02:40:59;;;;;;;;;;;24.90;52.60;;;;;;1575366;73;717;-67
2021/09/13 02:43:01;;;;;;;;;;;24.90;52.60;;;;;;1577079;73;808;-66
2021/09/13 02:45:04;;;;;;;;;;;24.90;52.50;;;;;;1575300;73;1934;-66
2021/09/13 02:47:06;;;;;;;;;;;24.80;52.50;;;;;;1577219;73;821;-69
2021/09/13 02:49:07;;;;;;;;;;;24.90;52.50;;;;;;1579924;73;743;-70
2021/09/13 02:51:09;;;;;;;;;;;24.90;52.60;;;;;;1583896;73;802;-69
2021/09/13 02:53:11;;;;;;;;;;;24.90;52.60;;;;;;1583485;73;688;-67
2021/09/13 02:55:13;;;;;;;;;;;24.90;52.60;;;;;;1587305;71;1174;-67
2021/09/13 02:57:15;;;;;;;;;;;24.90;52.60;;;;;;1578792;73;748;-66
2021/09/13 02:59:17;;;;;;;;;;;24.90;52.60;;;;;;1579374;73;744;-70
2021/09/13 03:01:19;;;;;;;;;;;24.90;52.40;;;;;;1586868;73;730;-68
2021/09/13 03:03:21;;;;;;;;;;;24.90;52.40;;;;;;1591083;73;793;-68
2021/09/13 03:05:22;;;;;;;;;;;24.80;52.30;;;;;;1590344;73;1934;-68
2021/09/13 03:07:24;;;;;;;;;;;24.80;52.20;;;;;;1586702;73;762;-67
2021/09/13 03:09:26;;;;;;;;;;;24.80;52.30;;;;;;1590497;73;918;-68
2021/09/13 03:11:28;;;;;;;;;;;24.80;52.40;;;;;;1589945;73;747;-67
2021/09/13 03:13:30;;;;;;;;;;;24.80;52.40;;;;;;1588828;73;802;-68
2021/09/13 03:15:32;;;;;;;;;;;24.80;52.40;;;;;;1582390;73;1072;-64
2021/09/13 03:17:34;;;;;;;;;;;24.80;52.40;;;;;;1588227;73;706;-67
2021/09/13 03:19:36;;;;;;;;;;;24.80;52.50;;;;;;1591334;73;718;-68
2021/09/13 03:21:38;;;;;;;;;;;24.80;52.50;;;;;;1586185;73;730;-69
2021/09/13 03:23:39;;;;;;;;;;;24.80;52.50;;;;;;1584896;73;1136;-65
2021/09/13 03:25:41;;;;;;;;;;;24.80;52.50;;;;;;1586167;73;1938;-68
2021/09/13 03:27:43;;;;;;;;;;;24.80;52.50;;;;;;1587969;73;782;-67
2021/09/13 03:29:45;;;;;;;;;;;24.80;52.50;;;;;;1589972;73;804;-69
2021/09/13 03:31:47;;;;;;;;;;;24.80;52.50;;;;;;1590873;73;881;-67
2021/09/13 03:33:49;;;;;;;;;;;24.80;52.40;;;;;;1588498;73;1127;-69
2021/09/13 03:35:51;;;;;;;;;;;24.80;52.40;;;;;;1588196;73;690;-69
2021/09/13 03:37:53;;;;;;;;;;;24.70;52.30;;;;;;1585404;73;707;-67
2021/09/13 03:39:55;;;;;;;;;;;24.80;52.40;;;;;;1586284;74;798;-68
2021/09/13 03:41:56;;;;;;;;;;;24.80;52.40;;;;;;1595521;73;714;-67
2021/09/13 03:43:58;;;;;;;;;;;24.70;52.40;;;;;;1594260;73;1129;-68
2021/09/13 03:46:00;;;;;;;;;;;24.70;52.50;;;;;;1592713;73;1949;-67
2021/09/13 03:48:02;;;;;;;;;;;24.80;52.50;;;;;;1592195;73;727;-67
2021/09/13 03:50:04;;;;;;;;;;;24.80;52.50;;;;;;1587390;73;710;-68
2021/09/13 03:52:08;;;;;;;;;;;24.80;52.50;;;;;;1597324;73;690;-68
2021/09/13 03:54:10;;;;;;;;;;;24.80;52.40;;;;;;1591493;73;1193;-68
2021/09/13 03:56:12;;;;;;;;;;;24.70;52.40;;;;;;1593619;73;746;-67
2021/09/13 03:58:14;;;;;;;;;;;24.70;52.40;;;;;;1595218;74;764;-68
2021/09/13 04:00:16;;;;;;;;;;;24.70;52.30;;;;;;1590746;73;811;-67
2021/09/13 04:02:18;;;;;;;;;;;24.80;52.30;;;;;;1587488;73;759;-68
2021/09/13 04:04:26;;;;;;;;;;;24.80;52.30;;;;;;1592945;73;1143;-68
2021/09/13 04:06:41;;;;;;;;;;;24.70;52.30;;;;;;1595059;73;1913;-68
2021/09/13 04:08:46;;;;;;;;;;;24.80;52.30;;;;;;1593244;73;1658;-67
2021/09/13 04:12:40;;;;;;;;;;;24.70;52.20;;;;;;1570287;74;854;-66
2021/09/13 04:14:42;;;;;;;;;;;24.70;52.20;;;;;;1530362;76;1195;-69
2021/09/13 04:16:44;;;;;;;;;;;24.70;52.20;;;;;;1577242;73;790;-66
2021/09/13 04:18:46;;;;;;;;;;;24.70;52.20;;;;;;1580080;73;701;-68
2021/09/13 04:20:47;;;;;;;;;;;24.60;52.10;;;;;;1584411;73;673;-66
2021/09/13 04:22:49;;;;;;;;;;;24.70;52.20;;;;;;1576121;73;732;-65
2021/09/13 04:24:51;;;;;;;;;;;24.70;52.20;;;;;;1580189;73;1116;-67
2021/09/13 04:26:53;;;;;;;;;;;24.70;52.10;;;;;;1588096;73;1953;-63
2021/09/13 04:28:55;;;;;;;;;;;24.70;52.10;;;;;;1590247;73;895;-66
2021/09/13 04:30:57;;;;;;;;;;;24.70;52.10;;;;;;1593939;73;800;-71
2021/09/13 04:32:59;;;;;;;;;;;24.70;52.10;;;;;;1594597;73;737;-70
2021/09/13 04:35:01;;;;;;;;;;;24.70;52.10;;;;;;1593868;73;1152;-68
2021/09/13 04:37:03;;;;;;;;;;;24.70;52.10;;;;;;1598031;73;633;-67
2021/09/13 04:39:05;;;;;;;;;;;24.70;52.10;;;;;;1596803;73;756;-67
2021/09/13 04:41:06;;;;;;;;;;;24.70;52.10;;;;;;1594927;73;722;-66
2021/09/13 04:43:08;;;;;;;;;;;24.70;52.10;;;;;;1590083;73;825;-66
2021/09/13 04:45:10;;;;;;;;;;;24.70;52.10;;;;;;1592015;73;1146;-66
2021/09/13 04:47:12;;;;;;;;;;;24.70;52.00;;;;;;1590273;73;1929;-67
2021/09/13 04:49:14;;;;;;;;;;;24.60;51.90;;;;;;1594620;73;727;-67
2021/09/13 04:51:16;;;;;;;;;;;24.60;51.90;;;;;;1590043;73;745;-66
2021/09/13 04:53:19;;;;;;;;;;;24.60;51.90;;;;;;1593483;74;713;-68
2021/09/13 04:55:21;;;;;;;;;;;24.60;51.90;;;;;;1594690;73;1107;-68
2021/09/13 04:57:22;;;;;;;;;;;24.60;51.90;;;;;;1592994;73;774;-68
2021/09/13 04:59:24;;;;;;;;;;;24.60;51.90;;;;;;1593268;74;750;-69
2021/09/13 05:01:26;;;;;;;;;;;24.60;51.90;;;;;;1591505;73;827;-68
2021/09/13 05:03:28;;;;;;;;;;;24.60;51.80;;;;;;1597043;73;780;-70
2021/09/13 05:05:30;;;;;;;;;;;24.60;51.80;;;;;;1600586;73;1141;-67
2021/09/13 05:07:32;;;;;;;;;;;24.60;51.80;;;;;;1597287;74;1930;-68
2021/09/13 05:09:34;;;;;;;;;;;24.70;52.00;;;;;;1598506;73;801;-68
2021/09/13 05:11:36;;;;;;;;;;;24.60;51.80;;;;;;1573596;74;755;-67
2021/09/13 05:13:37;;;;;;;;;;;24.60;51.80;;;;;;1598098;73;771;-66
2021/09/13 05:15:39;;;;;;;;;;;24.60;51.80;;;;;;1594387;74;745;-67
2021/09/13 05:17:41;;;;;;;;;;;24.60;51.80;;;;;;1587719;73;791;-67
2021/09/13 05:19:43;;;;;;;;;;;24.60;51.80;;;;;;1595021;73;761;-68
2021/09/13 05:21:45;;;;;;;;;;;24.60;51.90;;;;;;1598157;73;843;-64
2021/09/13 05:23:47;;;;;;;;;;;24.60;51.80;;;;;;1590278;73;1178;-67
2021/09/13 05:25:49;;;;;;;;;;;24.60;51.80;;;;;;1589023;74;763;-71
2021/09/13 05:27:51;;;;;;;;;;;24.60;51.90;;;;;;1584572;73;1910;-64
2021/09/13 05:29:53;;;;;;;;;;;24.50;51.80;;;;;;1593139;73;808;-68
2021/09/13 05:31:55;;;;;;;;;;;24.60;52.00;;;;;;1594821;73;794;-68
2021/09/13 05:33:56;;;;;;;;;;;24.60;52.00;;;;;;1588694;73;1126;-67
2021/09/13 05:35:58;;;;;;;;;;;24.60;51.90;;;;;;1593216;73;683;-66
2021/09/13 05:38:00;;;;;;;;;;;24.60;51.90;;;;;;1591832;73;651;-68
2021/09/13 05:40:04;;;;;;;;;;;24.60;52.00;;;;;;1597106;73;676;-62
2021/09/13 05:42:06;;;;;;;;;;;24.50;52.10;;;;;;1593160;73;845;-64
2021/09/13 05:44:08;;;;;;;;;;;24.60;52.00;;;;;;1589721;73;1130;-63
2021/09/13 05:46:10;;;;;;;;;;;24.70;52.10;;;;;;1596506;73;1936;-63
2021/09/13 05:48:11;;;;;;;;;;;24.70;52.00;;;;;;1591716;73;675;-63
2021/09/13 05:50:13;;;;;;;;;;;24.70;51.90;;;;;;1596068;73;791;-62
2021/09/13 05:52:15;;;;;;;;;;;24.70;51.80;;;;;;1594966;74;702;-60
2021/09/13 05:54:26;;;;;;;;;;;24.60;51.70;;;;;;1595785;73;1141;-62
2021/09/13 05:56:21;;;;;;;;;;;24.60;51.80;;;;;;1592053;73;1471;-63
2021/09/13 05:58:23;;;;;;;;;;;24.70;51.80;;;;;;1594961;73;722;-63
2021/09/13 06:00:25;;;;;;;;;;;24.60;51.70;;;;;;1597163;73;777;-62
2021/09/13 06:02:27;;;;;;;;;;;24.70;51.90;;;;;;1595608;73;800;-63
2021/09/13 06:04:32;;;;;;;;;;;24.60;51.80;;;;;;1596757;73;1116;-61
2021/09/13 06:06:32;;;;;;;;;;;24.60;51.80;;;;;;1587354;73;1923;-63
2021/09/13 06:08:34;;;;;;;;;;;24.60;51.80;;;;;;1593314;74;721;-62
2021/09/13 06:10:36;;;;;;;;;;;24.70;52.00;;;;;;1593989;73;766;-62
2021/09/13 06:12:38;;;;;;;;;;;24.60;51.90;;;;;;1595605;73;783;-62
2021/09/13 06:14:40;;;;;;;;;;;24.60;51.80;;;;;;1595422;73;1141;-62
2021/09/13 06:16:41;;;;;;;;;;;24.60;51.80;;;;;;1591828;73;783;-62
2021/09/13 06:18:43;;;;;;;;;;;24.60;51.80;;;;;;1597175;73;743;-62
2021/09/13 06:20:45;;;;;;;;;;;24.60;51.60;;;;;;1597707;73;822;-62
2021/09/13 06:22:47;;;;;;;;;;;24.50;51.60;;;;;;1596416;73;730;-62
2021/09/13 06:24:49;;;;;;;;;;;24.60;51.60;;;;;;1592140;73;1207;-63
2021/09/13 06:26:51;;;;;;;;;;;24.50;51.50;;;;;;1594446;73;1921;-62
2021/09/13 06:28:53;;;;;;;;;;;24.50;51.50;;;;;;1589941;73;786;-64
2021/09/13 06:30:55;;;;;;;;;;;24.50;51.50;;;;;;1605269;73;794;-64
2021/09/13 06:32:57;;;;;;;;;;;24.50;51.50;;;;;;1603720;73;711;-63
2021/09/13 06:34:59;;;;;;;;;;;24.50;51.50;;;;;;1597364;73;1139;-64
2021/09/13 06:37:01;;;;;;;;;;;24.50;51.50;;;;;;1597986;73;873;-63
2021/09/13 06:39:02;;;;;;;;;;;24.50;51.50;;;;;;1602267;73;697;-63
2021/09/13 06:41:04;;;;;;;;;;;24.50;51.50;;;;;;1605350;73;695;-61
2021/09/13 06:43:07;;;;;;;;;;;24.50;51.50;;;;;;1603923;73;676;-64
2021/09/13 06:45:11;;;;;;;;;;;24.50;51.50;;;;;;1598645;73;1106;-64
2021/09/13 06:47:23;;;;;;;;;;;24.50;51.50;;;;;;1587123;73;1929;-63
2021/09/13 06:49:18;;;;;;;;;;;24.50;51.50;;;;;;1604150;73;1536;-63
2021/09/13 06:51:20;;;;;;;;;;;24.50;51.50;;;;;;1599575;73;757;-63
2021/09/13 06:53:22;;;;;;;;;;;24.30;51.40;;;;;;1590005;73;775;-63
2021/09/13 06:55:24;;;;;;;;;;;24.40;51.50;;;;;;1602111;73;1110;-63
2021/09/13 06:57:26;;;;;;;;;;;24.50;51.50;;;;;;1600411;73;692;-63
2021/09/13 06:59:27;;;;;;;;;;;24.40;51.50;;;;;;1592689;73;779;-63
2021/09/13 07:01:32;;;;;;;;;;;24.40;51.50;;;;;;1604669;73;704;-61
2021/09/13 07:03:34;;;;;;;;;;;24.30;51.50;;;;;;1592608;73;747;-63
2021/09/13 07:05:37;;;;;;;;;;;24.40;51.50;;;;;;1599748;73;1147;-63
2021/09/13 07:07:38;;;;;;;;;;;24.40;51.50;;;;;;1597890;73;1906;-64
2021/09/13 07:09:40;;;;;;;;;;;24.40;51.50;;;;;;1596635;73;795;-63
2021/09/13 07:11:42;;;;;;;;;;;24.30;51.50;;;;;;1601731;73;752;-62
2021/09/13 07:13:44;;;;;;;;;;;24.30;51.50;;;;;;1598601;73;1128;-62
2021/09/13 07:15:46;;;;;;;;;;;24.40;51.50;;;;;;1603856;72;2171;-66
2021/09/13 07:17:48;;;;;;;;;;;24.40;51.50;;;;;;1602743;73;705;-67
2021/09/13 07:19:51;;;;;;;;;;;24.30;51.50;;;;;;1606047;73;729;-67
2021/09/13 07:21:53;;;;;;;;;;;24.30;51.50;;;;;;1598616;72;661;-65
2021/09/13 07:23:55;;;;;;;;;;;24.30;51.50;;;;;;1592360;72;894;-65
2021/09/13 07:25:57;;;;;;;;;;;24.30;51.50;;;;;;1600995;73;1186;-66
2021/09/13 07:27:59;;;;;;;;;;;24.30;51.50;;;;;;1607402;73;1934;-63
2021/09/13 07:30:02;;;;;;;;;;;24.30;51.60;;;;;;1609286;73;719;-66
2021/09/13 07:32:04;;;;;;;;;;;24.30;51.50;;;;;;1619736;71;765;-66
2021/09/13 07:34:06;;;;;;;;;;;24.30;51.50;;;;;;1599304;73;714;-66
2021/09/13 07:36:08;;;;;;;;;;;24.30;51.60;;;;;;1636036;71;1122;-66
2021/09/13 07:38:10;;;;;;;;;;;24.30;51.60;;;;;;1620097;72;777;-65
2021/09/13 07:40:12;;;;;;;;;;;24.40;51.70;;;;;;1619160;73;741;-66
2021/09/13 07:42:14;;;;;;;;;;;24.30;51.60;;;;;;1625724;72;727;-66
2021/09/13 07:44:16;;;;;;;;;;;24.30;51.70;;;;;;1621282;72;1141;-66
2021/09/13 07:46:18;;;;;;;;;;;24.30;51.60;;;;;;1597207;72;665;-66
2021/09/13 07:48:22;;;;;;;;;;;24.30;51.60;;;;;;1618982;72;1912;-66
2021/09/13 07:50:23;;;;;;;;;;;24.30;51.60;;;;;;1611482;72;1646;-64
2021/09/13 07:52:25;;;;;;;;;;;24.30;51.60;;;;;;1595835;73;753;-66
2021/09/13 07:54:27;;;;;;;;;;;24.30;51.50;;;;;;1598978;73;1095;-65
2021/09/13 07:56:29;;;;;;;;;;;24.30;51.60;;;;;;1593483;73;693;-66
2021/09/13 07:58:31;;;;;;;;;;;24.30;51.60;;;;;;1611068;73;704;-66
2021/09/13 08:00:33;;;;;;;;;;;24.30;51.70;;;;;;1602288;73;763;-66
2021/09/13 08:02:35;;;;;;;;;;;24.40;51.70;;;;;;1607688;72;681;-66
2021/09/13 08:04:37;;;;;;;;;;;24.30;51.60;;;;;;1611306;71;1145;-67
2021/09/13 08:06:39;;;;;;;;;;;24.30;51.70;;;;;;1597244;73;812;-66
2021/09/13 08:08:41;;;;;;;;;;;24.30;51.70;;;;;;1610511;72;1900;-69
2021/09/13 08:10:43;;;;;;;;;;;24.30;51.70;;;;;;1624355;72;725;-70
2021/09/13 08:12:45;;;;;;;;;;;24.30;51.80;;;;;;1609293;73;733;-69
2021/09/13 08:14:47;;;;;;;;;;;24.30;51.80;;;;;;1605940;73;1131;-69
2021/09/13 08:16:49;;;;;;;;;;;24.40;51.80;;;;;;1603424;73;796;-69
2021/09/13 08:18:51;;;;;;;;;;;24.40;51.80;;;;;;1604544;72;787;-68
2021/09/13 08:20:53;;;;;;;;;;;24.40;51.80;;;;;;1611805;72;676;-67
2021/09/13 08:22:56;;;;;;;;;;;24.40;51.80;;;;;;1614488;72;704;-68
2021/09/13 08:24:58;;;;;;;;;;;24.40;51.80;;;;;;1599988;73;1182;-70
2021/09/13 08:27:00;;;;;;;;;;;24.40;51.80;;;;;;1598330;73;714;-71
2021/09/13 08:29:02;;;;;;;;;;;24.50;51.80;;;;;;1616064;73;1939;-70
2021/09/13 08:31:04;;;;;;;;;;;24.40;51.70;;;;;;1602296;73;704;-69
2021/09/13 08:33:06;;;;;;;;;;;24.40;51.80;;;;;;1610441;72;759;-69
2021/09/13 08:35:08;;;;;;;;;;;24.50;51.80;;;;;;1606771;73;1077;-69
2021/09/13 08:37:10;;;;;;;;;;;24.40;51.80;;;;;;1602180;73;744;-68
2021/09/13 08:39:13;;;;;;;;;;;24.40;51.80;;;;;;1602803;73;770;-69
2021/09/13 08:41:15;;;;;;;;;;;24.50;51.90;;;;;;1600803;73;733;-69
2021/09/13 08:43:17;;;;;;;;;;;24.40;52.10;;;;;;1601360;73;710;-71
2021/09/13 08:45:32;;;;;;;;;;;24.50;52.80;;;;;;1602553;73;1136;-73
2021/09/13 08:47:36;;;;;;;;;;;24.50;52.30;;;;;;1591603;73;1933;-70
2021/09/13 08:49:40;;;;;;;;;;;24.50;52.30;;;;;;1601074;72;983;-70
2021/09/13 08:51:42;;;;;;;;;;;24.60;52.60;;;;;;1603473;73;1158;-70
2021/09/13 08:53:50;;;;;;;;;;;24.60;52.60;;;;;;1596304;73;767;-72
2021/09/13 08:55:50;;;;;;;;;;;24.60;52.50;;;;;;1595796;73;1519;-70
2021/09/13 08:57:51;;;;;;;;;;;24.80;52.60;;;;;;1601630;73;1434;-68
2021/09/13 08:59:53;;;;;;;;;;;24.60;52.10;;;;;;1600116;72;713;-73
2021/09/13 09:01:55;;;;;;;;;;;24.60;52.10;;;;;;1603208;73;678;-71
2021/09/13 09:03:57;;;;;;;;;;;24.70;52.20;;;;;;1602131;73;758;-71
2021/09/13 09:05:59;;;;;;;;;;;24.70;52.10;;;;;;1606882;73;1126;-68
2021/09/13 09:08:01;;;;;;;;;;;24.80;52.00;;;;;;1597680;72;1933;-70
2021/09/13 09:10:13;;;;;;;;;;;24.70;51.70;;;;;;1600577;72;654;-69
2021/09/13 09:12:15;;;;;;;;;;;24.60;51.70;;;;;;1600605;73;722;-70
2021/09/13 09:14:34;;;;;;;;;;;24.50;51.60;;;;;;1607596;73;1126;-70
2021/09/13 09:16:37;;;;;;;;;;;24.50;51.60;;;;;;1595779;73;792;-70
2021/09/13 09:18:39;;;;;;;;;;;24.40;51.80;;;;;;1607142;73;670;-70
2021/09/13 09:20:42;;;;;;;;;;;24.40;51.80;;;;;;1603911;73;726;-70
2021/09/13 09:22:45;;;;;;;;;;;24.40;51.90;;;;;;1603650;73;784;-67
2021/09/13 09:24:48;;;;;;;;;;;24.40;52.00;;;;;;1602767;73;1118;-69
2021/09/13 09:27:03;;;;;;;;;;;24.50;52.00;;;;;;1608138;73;827;-70
2021/09/13 09:29:05;;;;;;;;;;;24.50;51.90;;;;;;1602043;73;1902;-66
2021/09/13 09:31:07;;;;;;;;;;;24.60;52.20;;;;;;1598471;73;745;-71
2021/09/13 09:33:10;;;;;;;;;;;24.50;52.20;;;;;;1592595;73;762;-69
2021/09/13 09:35:18;;;;;;;;;;;24.50;52.60;;;;;;1591328;72;1095;-71
2021/09/13 09:37:20;;;;;;;;;;;24.50;52.10;;;;;;1601655;73;765;-70
2021/09/13 09:39:22;;;;;;;;;;;24.70;51.90;;;;;;1594933;73;669;-71
2021/09/13 09:41:23;;;;;;;;;;;24.80;51.90;;;;;;1600935;73;740;-71
2021/09/13 09:43:25;;;;;;;;;;;24.70;52.20;;;;;;1594313;73;836;-71
2021/09/13 09:45:27;;;;;;;;;;;24.70;52.40;;;;;;1608121;73;1151;-71
2021/09/13 09:47:29;;;;;;;;;;;24.70;52.80;;;;;;1597123;73;698;-71
2021/09/13 09:49:32;;;;;;;;;;;24.80;52.60;;;;;;1608741;73;1943;-72
2021/09/13 09:51:36;;;;;;;;;;;24.80;52.60;;;;;;1611701;73;1026;-72
2021/09/13 09:53:40;;;;;;;;;;;24.80;52.90;;;;;;1593328;72;697;-72
2021/09/13 09:55:48;;;;;;;;;;;24.90;52.80;;;;;;1595794;73;1101;-71
2021/09/13 09:57:47;;;;;;;;;;;25.00;52.80;;;;;;1606252;73;1589;-71
2021/09/13 09:59:51;;;;;;;;;;;24.90;52.70;;;;;;1606212;73;967;-70
2021/09/13 10:01:57;;;;;;;;;;;24.80;52.80;;;;;;1599587;73;775;-67
2021/09/13 10:03:56;;;;;;;;;;;24.90;52.70;;;;;;1602056;73;1068;-72
2021/09/13 10:05:58;;;;;;;;;;;24.90;52.50;;;;;;1602407;73;1143;-70
2021/09/13 10:08:00;;;;;;;;;;;24.80;52.20;;;;;;1609130;73;1935;-72
2021/09/13 10:10:02;;;;;;;;;;;24.90;52.20;;;;;;1598111;73;774;-68
2021/09/13 10:12:07;;;;;;;;;;;24.90;52.10;;;;;;1609296;73;673;-70
2021/09/13 10:14:09;;;;;;;;;;;24.90;51.70;;;;;;1594412;73;771;-71
2021/09/13 10:16:11;;;;;;;;;;;24.90;51.80;;;;;;1605166;73;934;-71
2021/09/13 10:18:13;;;;;;;;;;;25.00;51.70;;;;;;1612691;72;678;-70
2021/09/13 10:20:15;;;;;;;;;;;24.90;51.80;;;;;;1590875;73;730;-68
2021/09/13 10:22:17;;;;;;;;;;;25.00;52.00;;;;;;1606169;73;765;-71
2021/09/13 10:24:23;;;;;;;;;;;24.90;51.90;;;;;;1604791;72;1128;-70
2021/09/13 10:26:25;;;;;;;;;;;24.90;51.80;;;;;;1600992;73;684;-70
2021/09/13 10:28:29;;;;;;;;;;;25.00;52.30;;;;;;1593916;73;1945;-70
2021/09/13 10:30:33;;;;;;;;;;;25.00;52.10;;;;;;1603375;73;727;-70
2021/09/13 10:32:34;;;;;;;;;;;25.00;52.00;;;;;;1597239;73;1628;-70
2021/09/13 10:34:38;;;;;;;;;;;25.00;52.10;;;;;;1600142;73;1136;-70
2021/09/13 10:36:58;;;;;;;;;;;25.10;51.90;;;;;;1593496;73;1085;-71
2021/09/13 10:39:00;;;;;;;;;;;25.10;51.70;;;;;;1595059;73;701;-69
2021/09/13 10:41:02;;;;;;;;;;;25.20;51.50;;;;;;1613836;73;649;-69
2021/09/13 10:43:19;;;;;;;;;;;25.10;51.50;;;;;;1607449;73;725;-69
2021/09/13 10:45:25;;;;;;;;;;;25.10;51.50;;;;;;1589327;73;1162;-70
2021/09/13 10:47:28;;;;;;;;;;;25.00;51.60;;;;;;1592903;73;930;-70
2021/09/13 10:49:30;;;;;;;;;;;25.00;51.30;;;;;;1595583;73;1891;-69
2021/09/13 10:51:32;;;;;;;;;;;24.90;51.70;;;;;;1598072;73;756;-70
2021/09/13 10:53:35;;;;;;;;;;;25.00;51.70;;;;;;1599322;73;710;-69
2021/09/13 10:55:44;;;;;;;;;;;25.10;51.60;;;;;;1612002;72;1129;-70
2021/09/13 10:57:54;;;;;;;;;;;25.00;51.80;;;;;;1596064;73;1092;-70
2021/09/13 10:59:56;;;;;;;;;;;25.00;52.10;;;;;;1602800;73;687;-71
2021/09/13 11:02:07;;;;;;;;;;;25.00;52.00;;;;;;1595969;73;701;-72
2021/09/13 11:04:10;;;;;;;;;;;25.10;52.00;;;;;;1590675;73;799;-71
2021/09/13 11:06:13;;;;;;;;;;;25.00;52.10;;;;;;1601960;73;753;-71
2021/09/13 11:08:25;;;;;;;;;;;25.10;51.60;;;;;;1595355;73;1924;-69
2021/09/13 11:10:27;;;;;;;;;;;24.90;51.80;;;;;;1599011;72;781;-72
2021/09/13 11:12:29;;;;;;;;;;;24.90;51.40;;;;;;1610683;73;704;-71
2021/09/13 11:14:32;;;;;;;;;;;24.90;51.20;;;;;;1602116;73;1185;-70
2021/09/13 11:16:35;;;;;;;;;;;24.80;50.90;;;;;;1609727;73;764;-71
2021/09/13 11:18:45;;;;;;;;;;;24.90;51.30;;;;;;1614101;72;838;-74
2021/09/13 11:20:44;;;;;;;;;;;24.80;50.90;;;;;;1595160;72;870;-72
2021/09/13 11:22:46;;;;;;;;;;;24.90;51.10;;;;;;1608267;72;764;-73
2021/09/13 11:24:48;;;;;;;;;;;24.90;52.00;;;;;;1611777;73;1194;-74
2021/09/13 11:26:54;;;;;;;;;;;24.80;51.50;;;;;;1597280;73;740;-73
2021/09/13 11:29:15;;;;;;;;;;;24.70;51.20;;;;;;1605146;73;1911;-74
2021/09/13 11:31:19;;;;;;;;;;;24.70;51.50;;;;;;1608789;73;693;-73
2021/09/13 11:33:21;;;;;;;;;;;24.80;51.50;;;;;;1596108;73;1548;-73
2021/09/13 11:35:23;;;;;;;;;;;24.80;51.60;;;;;;1609995;73;1145;-73
2021/09/13 11:37:30;;;;;;;;;;;24.70;51.50;;;;;;1591092;73;781;-73
2021/09/13 11:39:36;;;;;;;;;;;24.70;51.50;;;;;;1600393;73;1413;-73
2021/09/13 11:41:37;;;;;;;;;;;24.70;51.30;;;;;;1596089;73;667;-70
2021/09/13 11:43:41;;;;;;;;;;;24.70;51.50;;;;;;1609343;73;692;-73
2021/09/13 11:45:43;;;;;;;;;;;24.60;51.50;;;;;;1602527;72;1219;-73
2021/09/13 11:47:45;;;;;;;;;;;24.60;51.30;;;;;;1602745;72;715;-71
2021/09/13 11:49:47;;;;;;;;;;;24.60;51.30;;;;;;1589590;73;1934;-72
2021/09/13 11:52:00;;;;;;;;;;;24.50;51.30;;;;;;1595657;73;680;-72
2021/09/13 11:54:07;;;;;;;;;;;24.60;51.30;;;;;;1598082;73;1004;-72
2021/09/13 11:56:11;;;;;;;;;;;24.60;51.20;;;;;;1601752;73;1152;-74
2021/09/13 11:58:15;;;;;;;;;;;24.50;51.10;;;;;;1603576;73;713;-72
2021/09/13 12:00:23;;;;;;;;;;;24.50;51.20;;;;;;1602495;73;1606;-70
2021/09/13 12:02:25;;;;;;;;;;;24.60;51.30;;;;;;1601043;73;886;-70
2021/09/13 12:04:27;;;;;;;;;;;24.70;51.30;;;;;;1607007;73;1154;-72
2021/09/13 12:06:29;;;;;;;;;;;24.60;50.60;;;;;;1597038;73;691;-71
2021/09/13 12:08:31;;;;;;;;;;;24.60;50.80;;;;;;1593165;73;1923;-71
2021/09/13 12:10:34;;;;;;;;;;;24.60;50.90;;;;;;1602557;73;710;-71
2021/09/13 12:12:36;;;;;;;;;;;24.70;50.80;;;;;;1606384;73;722;-73